Ana Sayfa
METAR-TAF:

METAR-TAF

Havaalanları :

Chatham Municipal Airport

Chatham, Massachusetts, Amerika Birleşik Devletleri

Enlem: 41-41-15N, Boylam: 069-59-36W, yükseklik: 20 m

Güncel hava durumu gözlemi

Rapor saat 18:52 UTC de 10 dakika önce yapıldı.
Rüzgar güneybatıdan 8 kt ve 19 kt'a kadar ani rüzgarlar
Sıcaklık 10°C
Nem 100%
Basınç 1009 hPa
Görüş mesafesi: 1.2 km
200 ft yükseklikte çok bulutlu
Pus

METAR: KCQX 101852Z AUTO 23008G19KT 3/4SM BR OVC002 10/10 A2979 RMK AO2 SLP088 T01000100 $

Saat: 14:02 (19:02 UTC)


TAF: eksik

4.000'den fazla havaalanı için hava durumu gözlemleri ve tahminleri (METAR ve TAF raporları).

Kullanılabilir istasyonlar harita üzerinde sarı ve kırmızı noktalarla gösterilir.

İstasyonun adını görmek için fareyi noktanın üzerinde gezdirin.

Sonrasında hava gözlem ve tahminlerini görmek için tıklayın.

Haritayı değiştirmek için: yaklaştırmak için siyah artı işaretli yeşil düğmeye ve uzaklaştırmak için de eksi işaretli düğmeye hızla tıklayın; bitişik haritalar için yeşil okları kullanın.


METAR-TAF: